Stella Polaris — PEBD — position and weather

sailwx.info

Track history (hours):
 
Tides and Currents Weather Stations Pressure Air Temp Water Temp Dewpoint Dewpoint Depression Visibility Wind Speed Wind Dir Waves Ship Positions

Stella Polaris

Last reported at 2016-Jul-26 22:24 UTC. Time now 2016-Jul-29 04:06 UTC.
Position N 43°23' W 079°04'.

Length 117 m; draft 7.8 m.

Type: Ship (hazmat cat A). MMSI: 245911000.

Date/timePositionNaut miles runAvg speedWind from/ knotsBaromVisibWave heightAir tempDewpointWater temp
2016-Jul-26 22:24N 43°23' W 079°04'12612.7
2016-Jul-26 12:27N 44°08' W 076°21'124 8.1
2016-Jul-25 21:09N 45°17' W 073°56'1 2.3
2016-Jul-25 20:33N 45°18' W 073°56'1 0.9
2016-Jul-25 19:34N 45°19' W 073°55'8 8.3
2016-Jul-25 18:33N 45°24' W 073°46'11 5.3
2016-Jul-25 16:32N 45°25' W 073°30'8 3.9
2016-Jul-25 14:33N 45°33' W 073°31'8 8.2
2016-Jul-25 13:32N 45°41' W 073°27'1010.1
2016-Jul-25 12:33N 45°49' W 073°19'10 9.9
2016-Jul-25 11:33N 45°57' W 073°12'10 9.7
2016-Jul-25 10:33N 46°04' W 073°02'1110.4
2016-Jul-25 09:32N 46°12' W 072°52'1111.1
2016-Jul-25 08:32N 46°17' W 072°37'  
2016-Jul-17 01:33N 50°31' W 010°00'3912.5
2016-Jul-16 22:25N 50°17' W 009°03'  
Track history (hours):
 
Tides and Currents Weather Stations Pressure Air Temp Water Temp Dewpoint Dewpoint Depression Visibility Wind Speed Wind Dir Waves Ship Positions

Stella Polaris

Last reported at 2016-Jul-26 22:24 UTC. Time now 2016-Jul-29 04:06 UTC.
Position N 43°23' W 079°04'.

Length 117 m; draft 7.8 m.

Type: Ship (hazmat cat A). MMSI: 245911000.

Date/timePositionNaut miles runAvg speedWind from/ knotsBaromVisibWave heightAir tempDewpointWater temp
2016-Jul-26 22:24N 43°23' W 079°04'12612.7
2016-Jul-26 12:27N 44°08' W 076°21'124 8.1
2016-Jul-25 21:09N 45°17' W 073°56'1 2.3
2016-Jul-25 20:33N 45°18' W 073°56'1 0.9
2016-Jul-25 19:34N 45°19' W 073°55'8 8.3
2016-Jul-25 18:33N 45°24' W 073°46'11 5.3
2016-Jul-25 16:32N 45°25' W 073°30'8 3.9
2016-Jul-25 14:33N 45°33' W 073°31'8 8.2
2016-Jul-25 13:32N 45°41' W 073°27'1010.1
2016-Jul-25 12:33N 45°49' W 073°19'10 9.9
2016-Jul-25 11:33N 45°57' W 073°12'10 9.7
2016-Jul-25 10:33N 46°04' W 073°02'1110.4
2016-Jul-25 09:32N 46°12' W 072°52'1111.1
2016-Jul-25 08:32N 46°17' W 072°37'  
2016-Jul-17 01:33N 50°31' W 010°00'3912.5
2016-Jul-16 22:25N 50°17' W 009°03'  

Dump ship's entire track history